Terminal Aerodrome Forecast
Issued by NWS

Home | Current Version | Previous Version | Text Only | Print | Product List | Glossary On
Versions: 1 2 3 4 5 6 7 8 9 10 11 12 13 14 15 16
795
FTUS46 KSEW 161748
TAFBLI
TAF
KBLI 161748Z 1618/1718 15006KT P6SM VCSH SCT012 BKN030 OVC050
      TEMPO 1618/1620 OVC012
     FM170400 14012KT P6SM -RA BKN025 OVC035
     FM170900 15015G25KT P6SM -RA OVC025=

USA.gov is the U.S. government's official web portal to all federal, state and local government web resources and services.